Alts de Aguada, Puerto Rico
Current Conditions -  °F | °C
As of 9:50 AM on Friday 19 Dec 2014 (Local Time) from TJBQ Reporting Station
Clear Clear  
Wind Chill: 79°   Ceiling: Unl
Heat Index: 81°   Visibility: 10mi
Dew Point: 68°   Wind: 14mph
Humidity: 69%   Direction: 100°E
Pressure: 30.03"   Gusts: NA
Location:  18.3974°N, 67.1679°W
Report Text: TJBQ 191350Z 10012KT 10SM SKC 26/20 A3003 RMK RWY08 ATIS K L
Loading
Personal Weather Stations






























Interactive Weather Map New forecast layout! Learn more

10-Day Weather Forecast

Advertisements
Track Severe Weather on mobile